| time (UTC) | temp C | wind direction | speed KPH | gust KPH | rain 1hr cm | rain 24hr cm | rain mn cm | humidity % | barometer mb |
| 20260507161521 | 16 | 209 | 6.4 | 19.3 | 0.00 | 0.41 | 0.30 | 58 | 1008.1 |
| 20260507160029 | 16 | 160 | 11.3 | 24.1 | 0.00 | 0.41 | 0.30 | 57 | 1008.1 |
| 20260507154518 | 16 | 22 | 1.6 | 17.7 | 0.00 | 0.41 | 0.30 | 61 | 1008.2 |
| 20260507153016 | 15 | 136 | 8.0 | 20.9 | 0.00 | 0.41 | 0.30 | 63 | 1008.4 |
| 20260507151514 | 15 | 159 | 8.0 | 17.7 | 0.00 | 0.41 | 0.30 | 64 | 1008.5 |
| 20260507150015 | 15 | 128 | 9.7 | 20.9 | 0.00 | 0.41 | 0.30 | 65 | 1008.6 |
| 20260507144513 | 14 | 268 | 9.7 | 17.7 | 0.00 | 0.41 | 0.30 | 66 | 1008.9 |
| 20260507143029 | 14 | 292 | 4.8 | 14.5 | 0.00 | 0.41 | 0.30 | 67 | 1009.0 |
| 20260507141511 | 13 | 290 | 4.8 | 12.9 | 0.00 | 0.41 | 0.30 | 68 | 1009.1 |
| 20260507140010 | 13 | 283 | 4.8 | 17.7 | 0.00 | 0.41 | 0.30 | 69 | 1009.1 |
| 20260507134509 | 13 | 295 | 3.2 | 12.9 | 0.00 | 0.41 | 0.30 | 72 | 1009.0 |
| 20260507133007 | 12 | 274 | 3.2 | 17.7 | 0.00 | 0.41 | 0.30 | 75 | 1009.2 |
| 20260507131510 | 12 | 256 | 3.2 | 16.1 | 0.00 | 0.41 | 0.30 | 78 | 1009.4 |
| 20260507130014 | 11 | 215 | 6.4 | 20.9 | 0.00 | 0.41 | 0.30 | 81 | 1009.4 |
| 20260507124504 | 10 | 250 | 8.0 | 16.1 | 0.00 | 0.41 | 0.30 | 83 | 1009.7 |
| 20260507123004 | 10 | 197 | 6.4 | 17.7 | 0.00 | 0.41 | 0.30 | 87 | 1009.6 |
| 20260507121502 | 9 | 189 | 6.4 | 17.7 | 0.03 | 0.41 | 0.30 | 92 | 1009.5 |
| 20260507120000 | 9 | 215 | 4.8 | 9.7 | 0.03 | 0.41 | 0.30 | 93 | 1009.3 |
| 20260507114601 | 9 | 194 | 8.0 | 14.5 | 0.03 | 0.41 | 0.30 | 93 | 1009.4 |
| 20260507113057 | 9 | 202 | 3.2 | 8.0 | 0.03 | 0.41 | 0.30 | 93 | 1009.4 |
| 20260507111555 | 9 | 205 | 0.0 | 3.2 | 0.00 | 0.38 | 0.28 | 93 | 1009.3 |
| 20260507110056 | 8 | 205 | 0.0 | 3.2 | 0.00 | 0.38 | 0.28 | 92 | 1009.0 |
| 20260507104559 | 8 | 205 | 0.0 | 3.2 | 0.03 | 0.38 | 0.28 | 91 | 1009.1 |
| 20260507103052 | 8 | 205 | 1.6 | 8.0 | 0.08 | 0.38 | 0.28 | 90 | 1009.4 |
| 20260507101550 | 8 | 217 | 0.0 | 0.0 | 0.10 | 0.38 | 0.28 | 90 | 1008.8 |
| 20260507100056 | 8 | 217 | 1.6 | 8.0 | 0.18 | 0.38 | 0.28 | 89 | 1008.9 |
| 20260507094549 | 8 | 202 | 4.8 | 11.3 | 0.18 | 0.36 | 0.25 | 89 | 1008.5 |
| 20260507093045 | 9 | 193 | 1.6 | 12.9 | 0.13 | 0.30 | 0.20 | 88 | 1008.5 |
| 20260507091542 | 9 | 196 | 1.6 | 9.7 | 0.13 | 0.28 | 0.18 | 88 | 1008.5 |
| 20260507090044 | 10 | 236 | 0.0 | 12.9 | 0.08 | 0.20 | 0.10 | 87 | 1008.8 |
| 20260507084543 | 10 | 189 | 1.6 | 11.3 | 0.05 | 0.18 | 0.08 | 87 | 1008.7 |
| 20260507083035 | 10 | 202 | 0.0 | 9.7 | 0.08 | 0.18 | 0.08 | 86 | 1008.3 |
| 20260507081531 | 11 | 179 | 3.2 | 11.3 | 0.05 | 0.15 | 0.05 | 85 | 1008.2 |
| 20260507080029 | 11 | 198 | 6.4 | 17.7 | 0.03 | 0.13 | 0.03 | 84 | 1008.6 |
| 20260507074525 | 11 | 178 | 3.2 | 14.5 | 0.03 | 0.13 | 0.03 | 83 | 1008.1 |
| 20260507073021 | 12 | 196 | 4.8 | 17.7 | 0.00 | 0.10 | 0.00 | 82 | 1008.1 |
| 20260507071523 | 12 | 213 | 3.2 | 16.1 | 0.00 | 0.10 | 0.00 | 82 | 1007.3 |
| 20260507070015 | 12 | 185 | 4.8 | 17.7 | 0.00 | 0.10 | 0.00 | 82 | 1007.5 |
| 20260507064639 | 12 | 263 | 4.8 | 14.5 | 0.00 | 0.10 | 0.00 | 83 | 1007.4 |
| 20260507063010 | 13 | 200 | 4.8 | 20.9 | 0.00 | 0.10 | 0.00 | 83 | 1007.6 |
| 20260507061508 | 13 | 175 | 6.4 | 19.3 | 0.00 | 0.10 | 0.00 | 83 | 1007.4 |
| 20260507060005 | 13 | 163 | 3.2 | 16.1 | 0.00 | 0.10 | 0.00 | 82 | 1007.6 |
| 20260507054504 | 13 | 167 | 6.4 | 19.3 | 0.00 | 0.10 | 0.00 | 83 | 1007.7 |
| 20260507053001 | 14 | 205 | 4.8 | 12.9 | 0.00 | 0.10 | 0.00 | 84 | 1007.9 |
| 20260507051608 | 14 | 182 | 3.2 | 11.3 | 0.00 | 0.10 | 0.00 | 84 | 1007.6 |
| 20260507050057 | 14 | 200 | 1.6 | 14.5 | 0.00 | 0.10 | 0.00 | 84 | 1007.5 |
| 20260507044558 | 15 | 191 | 4.8 | 22.5 | 0.00 | 0.10 | 0.00 | 86 | 1007.6 |
| 20260507043055 | 15 | 212 | 6.4 | 14.5 | 0.00 | 0.10 | 0.00 | 91 | 1007.3 |
| 20260507041552 | 15 | 180 | 0.0 | 11.3 | 0.00 | 0.10 | 0.00 | 93 | 1007.3 |
| 20260507040047 | 15 | 157 | 3.2 | 14.5 | 0.00 | 0.10 | 0.00 | 93 | 1007.6 |
| 20260507034546 | 15 | 153 | 6.4 | 16.1 | 0.00 | 0.10 | 0.10 | 93 | 1007.6 |
| 20260507033046 | 15 | 155 | 6.4 | 12.9 | 0.00 | 0.10 | 0.10 | 93 | 1007.2 |
| 20260507031545 | 15 | 117 | 6.4 | 17.7 | 0.00 | 0.10 | 0.10 | 92 | 1007.2 |
| 20260507030045 | 15 | 157 | 8.0 | 16.1 | 0.00 | 0.10 | 0.10 | 93 | 1007.0 |
| 20260507024544 | 15 | 150 | 6.4 | 12.9 | 0.00 | 0.10 | 0.10 | 93 | 1006.9 |
| 20260507023044 | 15 | 155 | 4.8 | 11.3 | 0.00 | 0.10 | 0.10 | 93 | 1007.2 |
| 20260507021544 | 15 | 159 | 6.4 | 12.9 | 0.00 | 0.10 | 0.10 | 93 | 1007.1 |
| 20260507020053 | 14 | 191 | 4.8 | 12.9 | 0.00 | 0.10 | 0.10 | 93 | 1007.1 |
| 20260507014546 | 14 | 127 | 4.8 | 12.9 | 0.00 | 0.10 | 0.10 | 93 | 1007.1 |
| 20260507013042 | 14 | 99 | 8.0 | 20.9 | 0.00 | 0.10 | 0.10 | 93 | 1007.3 |
| 20260507011541 | 14 | 150 | 6.4 | 17.7 | 0.00 | 0.10 | 0.10 | 93 | 1007.4 |
| 20260507010055 | 14 | 128 | 8.0 | 16.1 | 0.00 | 0.10 | 0.10 | 93 | 1007.6 |
| 20260507004537 | 14 | 111 | 8.0 | 17.7 | 0.00 | 0.10 | 0.10 | 93 | 1007.7 |
| 20260507003036 | 14 | 90 | 8.0 | 14.5 | 0.03 | 0.10 | 0.10 | 93 | 1007.5 |
| 20260507001535 | 14 | 124 | 8.0 | 24.1 | 0.05 | 0.10 | 0.10 | 92 | 1007.5 |
| 20260507000034 | 14 | 82 | 8.0 | 17.7 | 0.05 | 0.10 | 0.10 | 92 | 1007.3 |
| 20260506234532 | 14 | 151 | 8.0 | 19.3 | 0.05 | 0.10 | 0.10 | 91 | 1007.4 |
| 20260506233028 | 15 | 108 | 8.0 | 19.3 | 0.03 | 0.08 | 0.08 | 90 | 1007.2 |
| 20260506231526 | 15 | 98 | 9.7 | 19.3 | 0.00 | 0.05 | 0.05 | 89 | 1007.2 |
| 20260506230028 | 15 | 156 | 6.4 | 17.7 | 0.00 | 0.05 | 0.05 | 89 | 1007.2 |
| 20260506224525 | 15 | 150 | 8.0 | 17.7 | 0.00 | 0.05 | 0.05 | 89 | 1007.2 |
| 20260506223023 | 15 | 76 | 9.7 | 25.7 | 0.00 | 0.05 | 0.05 | 90 | 1007.3 |
| 20260506221520 | 15 | 108 | 8.0 | 17.7 | 0.00 | 0.05 | 0.05 | 90 | 1007.6 |
| 20260506220028 | 15 | 157 | 6.4 | 22.5 | 0.00 | 0.05 | 0.05 | 89 | 1007.6 |
| 20260506214617 | 16 | 100 | 9.7 | 19.3 | 0.00 | 0.05 | 0.05 | 88 | 1007.8 |
| 20260506213016 | 16 | 104 | 12.9 | 33.8 | 0.03 | 0.05 | 0.05 | 86 | 1008.1 |
| 20260506211513 | 16 | 159 | 12.9 | 33.8 | 0.03 | 0.05 | 0.05 | 86 | 1007.9 |
| 20260506210012 | 16 | 92 | 16.1 | 38.6 | 0.03 | 0.05 | 0.05 | 86 | 1008.0 |
| 20260506204511 | 16 | 135 | 11.3 | 22.5 | 0.03 | 0.05 | 0.05 | 86 | 1008.1 |
| 20260506203009 | 16 | 137 | 11.3 | 25.7 | 0.00 | 0.03 | 0.03 | 85 | 1008.1 |
| 20260506201524 | 16 | 89 | 11.3 | 25.7 | 0.03 | 0.03 | 0.03 | 85 | 1008.0 |
| 20260506200006 | 17 | 96 | 9.7 | 25.7 | 0.03 | 0.03 | 0.03 | 84 | 1007.9 |
| 20260506194507 | 17 | 109 | 12.9 | 29.0 | 0.03 | 0.03 | 0.03 | 83 | 1008.0 |
| 20260506193004 | 17 | 105 | 8.0 | 25.7 | 0.03 | 0.03 | 0.03 | 81 | 1008.2 |
| 20260506191503 | 18 | 104 | 6.4 | 19.3 | 0.00 | 0.00 | 0.00 | 78 | 1008.1 |
| 20260506190002 | 20 | 113 | 12.9 | 32.2 | 0.00 | 0.00 | 0.00 | 72 | 1008.0 |
| 20260506184501 | 20 | 154 | 11.3 | 25.7 | 0.00 | 0.00 | 0.00 | 70 | 1008.3 |
| 20260506183114 | 20 | 103 | 16.1 | 30.6 | 0.00 | 0.00 | 0.00 | 68 | 1008.4 |
| 20260506181600 | 21 | 69 | 12.9 | 37.0 | 0.00 | 0.00 | 0.00 | 66 | 1008.4 |
| 20260506180057 | 21 | 134 | 14.5 | 43.5 | 0.00 | 0.00 | 0.00 | 64 | 1008.3 |
| 20260506174555 | 22 | 111 | 11.3 | 32.2 | 0.00 | 0.00 | 0.00 | 64 | 1008.6 |
| 20260506173052 | 22 | 97 | 14.5 | 33.8 | 0.00 | 0.00 | 0.00 | 65 | 1008.8 |
| 20260506171601 | 21 | 61 | 16.1 | 37.0 | 0.00 | 0.00 | 0.00 | 66 | 1008.8 |
| 20260506170053 | 21 | 81 | 14.5 | 30.6 | 0.00 | 0.00 | 0.00 | 67 | 1008.8 |
| 20260506164549 | 21 | 107 | 14.5 | 33.8 | 0.00 | 0.00 | 0.00 | 67 | 1009.0 |
| 20260506163048 | 21 | 108 | 12.9 | 30.6 | 0.00 | 0.00 | 0.00 | 68 | 1009.2 |